sensor_id;sensor_type;location;lat;lon;timestamp;pressure;altitude;pressure_sealevel;temperature;humidity
10658;BME280;5377;43.276;26.930;2023-04-09T00:02:19;99613.56;;;5.57;100.00
10658;BME280;5377;43.276;26.930;2023-04-09T00:04:46;99609.38;;;5.54;100.00
10658;BME280;5377;43.276;26.930;2023-04-09T00:07:13;99622.00;;;5.52;100.00
10658;BME280;5377;43.276;26.930;2023-04-09T00:09:40;99622.66;;;5.54;100.00
10658;BME280;5377;43.276;26.930;2023-04-09T00:12:07;99614.31;;;5.41;100.00
10658;BME280;5377;43.276;26.930;2023-04-09T00:14:35;99620.63;;;5.48;100.00
10658;BME280;5377;43.276;26.930;2023-04-09T00:17:02;99612.31;;;5.43;100.00
10658;BME280;5377;43.276;26.930;2023-04-09T00:19:28;99617.78;;;5.42;100.00
10658;BME280;5377;43.276;26.930;2023-04-09T00:21:55;99620.97;;;5.45;100.00
10658;BME280;5377;43.276;26.930;2023-04-09T00:24:22;99622.59;;;5.38;100.00
10658;BME280;5377;43.276;26.930;2023-04-09T00:26:49;99627.19;;;5.28;100.00
10658;BME280;5377;43.276;26.930;2023-04-09T00:29:16;99630.38;;;5.14;100.00
10658;BME280;5377;43.276;26.930;2023-04-09T00:31:44;99625.50;;;5.27;100.00
10658;BME280;5377;43.276;26.930;2023-04-09T00:34:11;99632.19;;;5.31;100.00
10658;BME280;5377;43.276;26.930;2023-04-09T00:36:37;99624.38;;;5.29;100.00
10658;BME280;5377;43.276;26.930;2023-04-09T00:39:04;99634.13;;;5.21;100.00
10658;BME280;5377;43.276;26.930;2023-04-09T00:41:31;99637.69;;;5.12;100.00
10658;BME280;5377;43.276;26.930;2023-04-09T00:43:58;99622.31;;;4.97;100.00
10658;BME280;5377;43.276;26.930;2023-04-09T00:46:25;99633.66;;;5.08;100.00
10658;BME280;5377;43.276;26.930;2023-04-09T00:48:53;99616.75;;;5.09;100.00
10658;BME280;5377;43.276;26.930;2023-04-09T00:51:20;99625.75;;;5.16;100.00
10658;BME280;5377;43.276;26.930;2023-04-09T00:53:47;99623.06;;;5.08;100.00
10658;BME280;5377;43.276;26.930;2023-04-09T00:56:14;99625.59;;;4.91;100.00
10658;BME280;5377;43.276;26.930;2023-04-09T00:58:41;99625.81;;;4.98;100.00
10658;BME280;5377;43.276;26.930;2023-04-09T01:01:08;99628.94;;;4.93;100.00
10658;BME280;5377;43.276;26.930;2023-04-09T01:03:35;99624.16;;;4.97;100.00
10658;BME280;5377;43.276;26.930;2023-04-09T01:06:07;99626.13;;;4.95;100.00
10658;BME280;5377;43.276;26.930;2023-04-09T01:08:42;99629.28;;;4.98;100.00
10658;BME280;5377;43.276;26.930;2023-04-09T01:11:17;99623.25;;;4.88;100.00
10658;BME280;5377;43.276;26.930;2023-04-09T01:13:51;99633.19;;;4.86;100.00
10658;BME280;5377;43.276;26.930;2023-04-09T01:16:21;99629.72;;;4.86;100.00
10658;BME280;5377;43.276;26.930;2023-04-09T01:18:52;99623.25;;;4.88;100.00
10658;BME280;5377;43.276;26.930;2023-04-09T01:21:25;99622.28;;;4.89;100.00
10658;BME280;5377;43.276;26.930;2023-04-09T01:24:01;99627.56;;;4.89;100.00
10658;BME280;5377;43.276;26.930;2023-04-09T01:26:45;99628.78;;;4.95;100.00
10658;BME280;5377;43.276;26.930;2023-04-09T01:29:17;99621.19;;;4.82;100.00
10658;BME280;5377;43.276;26.930;2023-04-09T01:31:46;99620.31;;;4.74;100.00
10658;BME280;5377;43.276;26.930;2023-04-09T01:34:15;99625.81;;;4.80;100.00
10658;BME280;5377;43.276;26.930;2023-04-09T01:36:46;99622.59;;;4.86;100.00
10658;BME280;5377;43.276;26.930;2023-04-09T01:39:16;99625.91;;;4.88;100.00
10658;BME280;5377;43.276;26.930;2023-04-09T01:41:43;99623.25;;;4.88;100.00
10658;BME280;5377;43.276;26.930;2023-04-09T01:44:11;99624.25;;;4.87;100.00
10658;BME280;5377;43.276;26.930;2023-04-09T01:46:40;99620.88;;;4.85;100.00
10658;BME280;5377;43.276;26.930;2023-04-09T01:49:09;99621.88;;;4.84;100.00
10658;BME280;5377;43.276;26.930;2023-04-09T01:51:36;99618.69;;;4.81;100.00
10658;BME280;5377;43.276;26.930;2023-04-09T01:54:03;99620.09;;;4.67;100.00
10658;BME280;5377;43.276;26.930;2023-04-09T01:56:39;99615.75;;;4.66;100.00
10658;BME280;5377;43.276;26.930;2023-04-09T01:59:06;99616.28;;;4.69;100.00
10658;BME280;5377;43.276;26.930;2023-04-09T02:01:37;99613.41;;;4.63;100.00
10658;BME280;5377;43.276;26.930;2023-04-09T02:04:09;99611.75;;;4.62;100.00
10658;BME280;5377;43.276;26.930;2023-04-09T02:06:44;99611.75;;;4.62;100.00
10658;BME280;5377;43.276;26.930;2023-04-09T02:09:15;99609.25;;;4.43;100.00
10658;BME280;5377;43.276;26.930;2023-04-09T02:11:45;99614.03;;;4.39;100.00
10658;BME280;5377;43.276;26.930;2023-04-09T02:14:14;99621.53;;;4.44;100.00
10658;BME280;5377;43.276;26.930;2023-04-09T02:16:41;99626.59;;;4.37;100.00
10658;BME280;5377;43.276;26.930;2023-04-09T02:19:09;99625.91;;;4.17;100.00
10658;BME280;5377;43.276;26.930;2023-04-09T02:21:36;99631.44;;;4.24;100.00
10658;BME280;5377;43.276;26.930;2023-04-09T02:24:03;99637.59;;;4.24;100.00
10658;BME280;5377;43.276;26.930;2023-04-09T02:26:30;99631.81;;;4.29;100.00
10658;BME280;5377;43.276;26.930;2023-04-09T02:28:57;99648.53;;;4.12;100.00
10658;BME280;5377;43.276;26.930;2023-04-09T02:31:24;99644.59;;;4.16;100.00
10658;BME280;5377;43.276;26.930;2023-04-09T02:33:51;99646.03;;;4.10;100.00
10658;BME280;5377;43.276;26.930;2023-04-09T02:36:19;99652.91;;;4.03;100.00
10658;BME280;5377;43.276;26.930;2023-04-09T02:38:46;99663.13;;;3.98;100.00
10658;BME280;5377;43.276;26.930;2023-04-09T02:41:13;99660.63;;;3.96;100.00
10658;BME280;5377;43.276;26.930;2023-04-09T02:43:40;99660.47;;;3.98;100.00
10658;BME280;5377;43.276;26.930;2023-04-09T02:46:07;99667.16;;;4.02;100.00
10658;BME280;5377;43.276;26.930;2023-04-09T02:48:34;99670.94;;;3.99;100.00
10658;BME280;5377;43.276;26.930;2023-04-09T02:51:03;99674.50;;;4.08;100.00
10658;BME280;5377;43.276;26.930;2023-04-09T02:53:31;99678.81;;;4.09;100.00
10658;BME280;5377;43.276;26.930;2023-04-09T02:55:58;99680.63;;;4.08;100.00
10658;BME280;5377;43.276;26.930;2023-04-09T02:58:24;99673.06;;;4.14;100.00
10658;BME280;5377;43.276;26.930;2023-04-09T03:00:51;99678.94;;;4.17;100.00
10658;BME280;5377;43.276;26.930;2023-04-09T03:03:18;99677.81;;;4.20;100.00
10658;BME280;5377;43.276;26.930;2023-04-09T03:05:45;99678.34;;;4.23;100.00
10658;BME280;5377;43.276;26.930;2023-04-09T03:08:11;99682.66;;;4.24;100.00
10658;BME280;5377;43.276;26.930;2023-04-09T03:10:40;99687.22;;;4.32;100.00
10658;BME280;5377;43.276;26.930;2023-04-09T03:13:06;99673.56;;;4.27;100.00
10658;BME280;5377;43.276;26.930;2023-04-09T03:15:33;99673.03;;;4.23;100.00
10658;BME280;5377;43.276;26.930;2023-04-09T03:18:00;99668.56;;;4.24;100.00
10658;BME280;5377;43.276;26.930;2023-04-09T03:20:27;99674.78;;;4.32;100.00
10658;BME280;5377;43.276;26.930;2023-04-09T03:22:54;99679.41;;;4.30;100.00
10658;BME280;5377;43.276;26.930;2023-04-09T03:25:20;99685.09;;;4.35;100.00
10658;BME280;5377;43.276;26.930;2023-04-09T03:27:48;99680.16;;;4.41;100.00
10658;BME280;5377;43.276;26.930;2023-04-09T03:30:15;99682.66;;;4.42;100.00
10658;BME280;5377;43.276;26.930;2023-04-09T03:32:42;99677.91;;;4.46;100.00
10658;BME280;5377;43.276;26.930;2023-04-09T03:35:09;99684.28;;;4.53;100.00
10658;BME280;5377;43.276;26.930;2023-04-09T03:37:35;99684.56;;;4.50;100.00
10658;BME280;5377;43.276;26.930;2023-04-09T03:40:03;99689.16;;;4.57;100.00
10658;BME280;5377;43.276;26.930;2023-04-09T03:42:30;99700.91;;;4.55;100.00
10658;BME280;5377;43.276;26.930;2023-04-09T03:44:58;99696.50;;;4.63;100.00
10658;BME280;5377;43.276;26.930;2023-04-09T03:47:24;99688.81;;;4.43;100.00
10658;BME280;5377;43.276;26.930;2023-04-09T03:49:51;99703.28;;;4.48;100.00
10658;BME280;5377;43.276;26.930;2023-04-09T03:52:18;99694.78;;;4.45;100.00
10658;BME280;5377;43.276;26.930;2023-04-09T03:54:45;99703.66;;;4.35;100.00
10658;BME280;5377;43.276;26.930;2023-04-09T03:57:12;99711.84;;;4.15;100.00
10658;BME280;5377;43.276;26.930;2023-04-09T03:59:39;99718.09;;;4.23;100.00
10658;BME280;5377;43.276;26.930;2023-04-09T04:02:07;99718.66;;;4.27;100.00
10658;BME280;5377;43.276;26.930;2023-04-09T04:04:33;99716.59;;;4.21;100.00
10658;BME280;5377;43.276;26.930;2023-04-09T04:07:01;99713.19;;;4.28;100.00
10658;BME280;5377;43.276;26.930;2023-04-09T04:09:28;99708.88;;;4.27;100.00
10658;BME280;5377;43.276;26.930;2023-04-09T04:11:55;99710.44;;;4.20;100.00
10658;BME280;5377;43.276;26.930;2023-04-09T04:14:23;99729.00;;;4.20;100.00
10658;BME280;5377;43.276;26.930;2023-04-09T04:16:49;99708.94;;;4.18;100.00
10658;BME280;5377;43.276;26.930;2023-04-09T04:19:18;99712.00;;;4.13;100.00
10658;BME280;5377;43.276;26.930;2023-04-09T04:21:44;99704.31;;;4.20;100.00
10658;BME280;5377;43.276;26.930;2023-04-09T04:24:11;99716.28;;;4.24;100.00
10658;BME280;5377;43.276;26.930;2023-04-09T04:26:38;99707.81;;;4.20;100.00
10658;BME280;5377;43.276;26.930;2023-04-09T04:29:05;99703.97;;;4.32;100.00
10658;BME280;5377;43.276;26.930;2023-04-09T04:31:32;99706.53;;;4.24;100.00
10658;BME280;5377;43.276;26.930;2023-04-09T04:33:59;99712.91;;;4.31;100.00
10658;BME280;5377;43.276;26.930;2023-04-09T04:36:27;99708.03;;;4.27;100.00
10658;BME280;5377;43.276;26.930;2023-04-09T04:38:54;99709.78;;;4.36;100.00
10658;BME280;5377;43.276;26.930;2023-04-09T04:41:21;99708.13;;;4.35;100.00
10658;BME280;5377;43.276;26.930;2023-04-09T04:43:47;99698.66;;;4.32;100.00
10658;BME280;5377;43.276;26.930;2023-04-09T04:46:14;99704.69;;;4.52;100.00
10658;BME280;5377;43.276;26.930;2023-04-09T04:48:41;99712.63;;;4.52;100.00
10658;BME280;5377;43.276;26.930;2023-04-09T04:51:08;99715.75;;;4.65;100.00
10658;BME280;5377;43.276;26.930;2023-04-09T04:53:36;99718.56;;;4.64;100.00
10658;BME280;5377;43.276;26.930;2023-04-09T04:56:03;99713.94;;;4.66;100.00
10658;BME280;5377;43.276;26.930;2023-04-09T04:58:30;99708.53;;;4.76;100.00
10658;BME280;5377;43.276;26.930;2023-04-09T05:00:57;99711.34;;;4.74;100.00
10658;BME280;5377;43.276;26.930;2023-04-09T05:03:24;99720.00;;;4.76;100.00
10658;BME280;5377;43.276;26.930;2023-04-09T05:05:51;99717.34;;;4.76;100.00
10658;BME280;5377;43.276;26.930;2023-04-09T05:08:18;99724.09;;;4.70;100.00
10658;BME280;5377;43.276;26.930;2023-04-09T05:10:46;99715.31;;;4.88;100.00
10658;BME280;5377;43.276;26.930;2023-04-09T05:13:13;99720.16;;;4.92;100.00
10658;BME280;5377;43.276;26.930;2023-04-09T05:15:40;99710.44;;;5.01;100.00
10658;BME280;5377;43.276;26.930;2023-04-09T05:18:07;99726.13;;;5.12;100.00
10658;BME280;5377;43.276;26.930;2023-04-09T05:20:34;99715.44;;;5.04;100.00
10658;BME280;5377;43.276;26.930;2023-04-09T05:23:00;99721.03;;;5.19;100.00
10658;BME280;5377;43.276;26.930;2023-04-09T05:25:27;99716.66;;;5.27;100.00
10658;BME280;5377;43.276;26.930;2023-04-09T05:27:55;99719.41;;;5.44;100.00
10658;BME280;5377;43.276;26.930;2023-04-09T05:30:22;99708.09;;;5.42;100.00
10658;BME280;5377;43.276;26.930;2023-04-09T05:32:49;99707.94;;;5.43;100.00
10658;BME280;5377;43.276;26.930;2023-04-09T05:35:16;99708.38;;;5.56;100.00
10658;BME280;5377;43.276;26.930;2023-04-09T05:37:43;99701.66;;;5.70;100.00
10658;BME280;5377;43.276;26.930;2023-04-09T05:40:11;99700.34;;;5.74;100.00
10658;BME280;5377;43.276;26.930;2023-04-09T05:42:39;99703.84;;;5.75;100.00
10658;BME280;5377;43.276;26.930;2023-04-09T05:45:08;99704.66;;;5.75;100.00
10658;BME280;5377;43.276;26.930;2023-04-09T05:47:35;99699.72;;;5.80;100.00
10658;BME280;5377;43.276;26.930;2023-04-09T05:50:02;99708.53;;;5.89;100.00
10658;BME280;5377;43.276;26.930;2023-04-09T05:52:29;99711.84;;;5.83;100.00
10658;BME280;5377;43.276;26.930;2023-04-09T05:54:55;99708.06;;;6.19;100.00
10658;BME280;5377;43.276;26.930;2023-04-09T05:57:22;99698.50;;;6.35;100.00
10658;BME280;5377;43.276;26.930;2023-04-09T05:59:49;99698.00;;;6.39;100.00
10658;BME280;5377;43.276;26.930;2023-04-09T06:02:17;99699.50;;;6.42;100.00
10658;BME280;5377;43.276;26.930;2023-04-09T06:04:44;99700.50;;;6.49;100.00
10658;BME280;5377;43.276;26.930;2023-04-09T06:07:10;99696.53;;;6.53;100.00
10658;BME280;5377;43.276;26.930;2023-04-09T06:09:37;99702.91;;;6.76;100.00
10658;BME280;5377;43.276;26.930;2023-04-09T06:12:04;99702.09;;;6.92;100.00
10658;BME280;5377;43.276;26.930;2023-04-09T06:14:31;99688.94;;;7.15;100.00
10658;BME280;5377;43.276;26.930;2023-04-09T06:16:58;99683.09;;;7.28;100.00
10658;BME280;5377;43.276;26.930;2023-04-09T06:19:26;99683.94;;;7.44;100.00
10658;BME280;5377;43.276;26.930;2023-04-09T06:21:53;99689.78;;;7.32;100.00
10658;BME280;5377;43.276;26.930;2023-04-09T06:24:20;99697.59;;;7.49;100.00
10658;BME280;5377;43.276;26.930;2023-04-09T06:26:47;99712.09;;;7.31;100.00
10658;BME280;5377;43.276;26.930;2023-04-09T06:29:14;99692.25;;;7.49;100.00
10658;BME280;5377;43.276;26.930;2023-04-09T06:31:42;99687.44;;;7.45;100.00
10658;BME280;5377;43.276;26.930;2023-04-09T06:34:09;99684.22;;;7.58;100.00
10658;BME280;5377;43.276;26.930;2023-04-09T06:36:37;99681.19;;;7.77;100.00
10658;BME280;5377;43.276;26.930;2023-04-09T06:39:04;99669.44;;;7.47;100.00
10658;BME280;5377;43.276;26.930;2023-04-09T06:41:31;99677.56;;;7.70;100.00
10658;BME280;5377;43.276;26.930;2023-04-09T06:43:58;99681.34;;;7.83;100.00
10658;BME280;5377;43.276;26.930;2023-04-09T06:46:26;99677.84;;;7.83;100.00
10658;BME280;5377;43.276;26.930;2023-04-09T06:48:53;99672.03;;;7.79;100.00
10658;BME280;5377;43.276;26.930;2023-04-09T06:51:19;99678.22;;;7.72;100.00
10658;BME280;5377;43.276;26.930;2023-04-09T06:53:47;99672.88;;;7.72;100.00
10658;BME280;5377;43.276;26.930;2023-04-09T06:56:14;99679.78;;;7.97;100.00
10658;BME280;5377;43.276;26.930;2023-04-09T06:58:41;99672.28;;;8.32;100.00
10658;BME280;5377;43.276;26.930;2023-04-09T07:01:08;99667.00;;;8.24;100.00
10658;BME280;5377;43.276;26.930;2023-04-09T07:03:35;99663.34;;;8.56;100.00
10658;BME280;5377;43.276;26.930;2023-04-09T07:06:02;99664.50;;;8.84;100.00
10658;BME280;5377;43.276;26.930;2023-04-09T07:08:28;99663.03;;;9.04;100.00
10658;BME280;5377;43.276;26.930;2023-04-09T07:10:57;99654.03;;;8.97;100.00
10658;BME280;5377;43.276;26.930;2023-04-09T07:13:23;99663.06;;;9.19;100.00
10658;BME280;5377;43.276;26.930;2023-04-09T07:15:50;99659.94;;;9.30;100.00
10658;BME280;5377;43.276;26.930;2023-04-09T07:18:17;99636.00;;;9.52;100.00
10658;BME280;5377;43.276;26.930;2023-04-09T07:20:44;99662.47;;;9.47;100.00
10658;BME280;5377;43.276;26.930;2023-04-09T07:23:11;99663.56;;;9.52;100.00
10658;BME280;5377;43.276;26.930;2023-04-09T07:25:37;99662.84;;;9.44;100.00
10658;BME280;5377;43.276;26.930;2023-04-09T07:28:06;99651.03;;;9.53;100.00
10658;BME280;5377;43.276;26.930;2023-04-09T07:30:33;99658.16;;;9.90;100.00
10658;BME280;5377;43.276;26.930;2023-04-09T07:33:00;99648.28;;;9.90;100.00
10658;BME280;5377;43.276;26.930;2023-04-09T07:35:27;99643.84;;;9.68;100.00
10658;BME280;5377;43.276;26.930;2023-04-09T07:37:54;99648.72;;;9.50;100.00
10658;BME280;5377;43.276;26.930;2023-04-09T07:40:21;99640.97;;;9.99;100.00
10658;BME280;5377;43.276;26.930;2023-04-09T07:42:48;99643.56;;;10.22;100.00
10658;BME280;5377;43.276;26.930;2023-04-09T07:45:16;99651.28;;;10.31;100.00
10658;BME280;5377;43.276;26.930;2023-04-09T07:47:43;99646.94;;;10.88;100.00
10658;BME280;5377;43.276;26.930;2023-04-09T07:50:10;99633.25;;;11.25;100.00
10658;BME280;5377;43.276;26.930;2023-04-09T07:52:37;99620.06;;;11.86;100.00
10658;BME280;5377;43.276;26.930;2023-04-09T07:55:05;99619.22;;;12.40;100.00
10658;BME280;5377;43.276;26.930;2023-04-09T07:57:32;99618.50;;;13.12;95.81
10658;BME280;5377;43.276;26.930;2023-04-09T07:59:59;99614.53;;;13.74;90.12
10658;BME280;5377;43.276;26.930;2023-04-09T08:02:27;99606.44;;;14.32;86.35
10658;BME280;5377;43.276;26.930;2023-04-09T08:04:54;99608.91;;;15.04;80.84
10658;BME280;5377;43.276;26.930;2023-04-09T08:07:21;99604.13;;;15.31;74.83
10658;BME280;5377;43.276;26.930;2023-04-09T08:09:48;99604.81;;;15.44;72.94
10658;BME280;5377;43.276;26.930;2023-04-09T08:12:15;99608.31;;;15.26;72.03
10658;BME280;5377;43.276;26.930;2023-04-09T08:14:41;99600.03;;;16.68;68.63
10658;BME280;5377;43.276;26.930;2023-04-09T08:17:08;99594.81;;;17.08;64.37
10658;BME280;5377;43.276;26.930;2023-04-09T08:19:36;99602.66;;;16.86;63.50
10658;BME280;5377;43.276;26.930;2023-04-09T08:22:03;99601.09;;;16.48;61.88
10658;BME280;5377;43.276;26.930;2023-04-09T08:24:30;99591.72;;;16.03;61.71
10658;BME280;5377;43.276;26.930;2023-04-09T08:26:57;99603.13;;;16.53;64.89
10658;BME280;5377;43.276;26.930;2023-04-09T08:29:25;99594.59;;;17.21;61.20
10658;BME280;5377;43.276;26.930;2023-04-09T08:31:52;99593.53;;;17.34;61.84
10658;BME280;5377;43.276;26.930;2023-04-09T08:34:19;99588.44;;;18.07;58.11
10658;BME280;5377;43.276;26.930;2023-04-09T08:36:47;99590.25;;;17.43;56.64
10658;BME280;5377;43.276;26.930;2023-04-09T08:39:15;99598.25;;;17.15;56.99
10658;BME280;5377;43.276;26.930;2023-04-09T08:41:44;99596.03;;;17.70;55.73
10658;BME280;5377;43.276;26.930;2023-04-09T08:44:12;99582.53;;;18.67;55.06
10658;BME280;5377;43.276;26.930;2023-04-09T08:46:38;99579.94;;;18.89;51.75
10658;BME280;5377;43.276;26.930;2023-04-09T08:49:07;99582.06;;;18.87;49.30
10658;BME280;5377;43.276;26.930;2023-04-09T08:51:35;99583.28;;;17.83;51.74
10658;BME280;5377;43.276;26.930;2023-04-09T08:54:03;99584.13;;;17.13;54.16
10658;BME280;5377;43.276;26.930;2023-04-09T08:56:30;99583.97;;;18.58;51.64
10658;BME280;5377;43.276;26.930;2023-04-09T08:58:56;99578.50;;;19.37;49.75
10658;BME280;5377;43.276;26.930;2023-04-09T09:01:25;99559.41;;;19.87;47.66
10658;BME280;5377;43.276;26.930;2023-04-09T09:03:54;99570.41;;;19.98;46.15
10658;BME280;5377;43.276;26.930;2023-04-09T09:06:23;99573.44;;;19.07;47.36
10658;BME280;5377;43.276;26.930;2023-04-09T09:09:00;99570.06;;;18.26;48.72
10658;BME280;5377;43.276;26.930;2023-04-09T09:11:29;99563.53;;;19.90;47.11
10658;BME280;5377;43.276;26.930;2023-04-09T09:13:56;99563.22;;;20.57;45.92
10658;BME280;5377;43.276;26.930;2023-04-09T09:16:23;99562.31;;;20.03;46.30
10658;BME280;5377;43.276;26.930;2023-04-09T09:18:50;99565.56;;;19.78;45.64
10658;BME280;5377;43.276;26.930;2023-04-09T09:21:17;99565.19;;;19.74;45.03
10658;BME280;5377;43.276;26.930;2023-04-09T09:23:45;99540.16;;;19.33;44.59
10658;BME280;5377;43.276;26.930;2023-04-09T09:26:13;99561.16;;;20.20;43.35
10658;BME280;5377;43.276;26.930;2023-04-09T09:28:42;99556.44;;;19.89;42.65
10658;BME280;5377;43.276;26.930;2023-04-09T09:31:10;99563.31;;;19.53;43.84
10658;BME280;5377;43.276;26.930;2023-04-09T09:33:37;99573.41;;;19.41;44.71
10658;BME280;5377;43.276;26.930;2023-04-09T09:36:04;99555.34;;;19.68;44.54
10658;BME280;5377;43.276;26.930;2023-04-09T09:38:32;99552.69;;;20.17;43.74
10658;BME280;5377;43.276;26.930;2023-04-09T09:41:15;99552.91;;;20.37;42.66
10658;BME280;5377;43.276;26.930;2023-04-09T09:43:43;99549.16;;;19.94;40.84
10658;BME280;5377;43.276;26.930;2023-04-09T09:46:11;99542.97;;;21.12;41.02
10658;BME280;5377;43.276;26.930;2023-04-09T09:48:38;99552.50;;;20.02;41.29
10658;BME280;5377;43.276;26.930;2023-04-09T09:51:08;99545.03;;;20.63;40.59
10658;BME280;5377;43.276;26.930;2023-04-09T09:53:36;99542.00;;;20.91;40.13
10658;BME280;5377;43.276;26.930;2023-04-09T09:56:04;99539.25;;;21.65;38.73
10658;BME280;5377;43.276;26.930;2023-04-09T09:58:34;99538.81;;;20.99;39.37
10658;BME280;5377;43.276;26.930;2023-04-09T10:01:06;99533.31;;;20.62;39.04
10658;BME280;5377;43.276;26.930;2023-04-09T10:03:34;99533.19;;;21.16;38.32
10658;BME280;5377;43.276;26.930;2023-04-09T10:06:03;99528.72;;;21.00;38.59
10658;BME280;5377;43.276;26.930;2023-04-09T10:08:30;99534.38;;;20.88;38.16
10658;BME280;5377;43.276;26.930;2023-04-09T10:10:59;99528.38;;;20.32;38.20
10658;BME280;5377;43.276;26.930;2023-04-09T10:13:29;99529.75;;;20.35;37.21
10658;BME280;5377;43.276;26.930;2023-04-09T10:15:59;99541.47;;;19.86;38.08
10658;BME280;5377;43.276;26.930;2023-04-09T10:18:28;99531.66;;;19.47;39.01
10658;BME280;5377;43.276;26.930;2023-04-09T10:20:59;99536.47;;;19.23;39.26
10658;BME280;5377;43.276;26.930;2023-04-09T10:23:32;99538.97;;;18.74;39.58
10658;BME280;5377;43.276;26.930;2023-04-09T10:26:01;99524.09;;;19.49;39.37
10658;BME280;5377;43.276;26.930;2023-04-09T10:28:29;99517.34;;;19.35;39.14
10658;BME280;5377;43.276;26.930;2023-04-09T10:30:57;99525.44;;;19.29;39.24
10658;BME280;5377;43.276;26.930;2023-04-09T10:33:26;99524.53;;;19.24;39.76
10658;BME280;5377;43.276;26.930;2023-04-09T10:35:58;99527.69;;;18.65;39.62
10658;BME280;5377;43.276;26.930;2023-04-09T10:38:32;99511.28;;;19.66;38.66
10658;BME280;5377;43.276;26.930;2023-04-09T10:41:06;99510.16;;;20.60;37.33
10658;BME280;5377;43.276;26.930;2023-04-09T10:43:35;99502.13;;;21.54;35.50
10658;BME280;5377;43.276;26.930;2023-04-09T10:46:04;99491.81;;;21.66;34.31
10658;BME280;5377;43.276;26.930;2023-04-09T10:48:34;99493.56;;;21.93;34.13
10658;BME280;5377;43.276;26.930;2023-04-09T10:51:03;99477.69;;;21.79;33.60
10658;BME280;5377;43.276;26.930;2023-04-09T10:53:31;99500.34;;;21.28;33.95
10658;BME280;5377;43.276;26.930;2023-04-09T10:55:59;99482.44;;;22.15;33.28
10658;BME280;5377;43.276;26.930;2023-04-09T10:58:26;99473.47;;;22.55;32.50
10658;BME280;5377;43.276;26.930;2023-04-09T11:00:53;99476.72;;;22.11;32.50
10658;BME280;5377;43.276;26.930;2023-04-09T11:03:25;99482.22;;;21.11;33.85
10658;BME280;5377;43.276;26.930;2023-04-09T11:05:57;99483.03;;;19.67;35.12
10658;BME280;5377;43.276;26.930;2023-04-09T11:08:28;99489.31;;;20.43;35.13
10658;BME280;5377;43.276;26.930;2023-04-09T11:10:56;99470.38;;;21.95;33.64
10658;BME280;5377;43.276;26.930;2023-04-09T11:13:26;99471.00;;;23.19;32.45
10658;BME280;5377;43.276;26.930;2023-04-09T11:15:53;99458.91;;;24.05;31.17
10658;BME280;5377;43.276;26.930;2023-04-09T11:18:22;99462.53;;;24.40;29.24
10658;BME280;5377;43.276;26.930;2023-04-09T11:20:53;99475.16;;;23.01;30.10
10658;BME280;5377;43.276;26.930;2023-04-09T11:23:20;99462.56;;;22.70;29.98
10658;BME280;5377;43.276;26.930;2023-04-09T11:25:49;99462.56;;;23.06;29.65
10658;BME280;5377;43.276;26.930;2023-04-09T11:28:16;99462.59;;;22.95;29.96
10658;BME280;5377;43.276;26.930;2023-04-09T11:30:44;99458.84;;;21.73;31.13
10658;BME280;5377;43.276;26.930;2023-04-09T11:33:12;99453.56;;;22.24;31.56
10658;BME280;5377;43.276;26.930;2023-04-09T11:35:39;99454.94;;;22.31;31.38
10658;BME280;5377;43.276;26.930;2023-04-09T11:38:06;99453.84;;;22.22;31.76
10658;BME280;5377;43.276;26.930;2023-04-09T11:40:33;99440.69;;;20.89;33.00
10658;BME280;5377;43.276;26.930;2023-04-09T11:43:02;99442.94;;;21.49;31.91
10658;BME280;5377;43.276;26.930;2023-04-09T11:45:30;99442.09;;;22.42;31.14
10658;BME280;5377;43.276;26.930;2023-04-09T11:47:57;99423.72;;;23.19;29.90
10658;BME280;5377;43.276;26.930;2023-04-09T11:50:24;99430.06;;;22.89;29.58
10658;BME280;5377;43.276;26.930;2023-04-09T11:52:51;99420.94;;;23.93;28.83
10658;BME280;5377;43.276;26.930;2023-04-09T11:55:25;99409.09;;;24.76;28.48
10658;BME280;5377;43.276;26.930;2023-04-09T11:57:55;99405.06;;;25.45;27.27
10658;BME280;5377;43.276;26.930;2023-04-09T12:00:24;99406.97;;;24.00;27.51
10658;BME280;5377;43.276;26.930;2023-04-09T12:02:58;99419.44;;;22.57;29.07
10658;BME280;5377;43.276;26.930;2023-04-09T12:05:27;99412.34;;;22.81;29.13
10658;BME280;5377;43.276;26.930;2023-04-09T12:07:57;99405.25;;;23.55;29.43
10658;BME280;5377;43.276;26.930;2023-04-09T12:10:28;99394.31;;;24.09;28.41
10658;BME280;5377;43.276;26.930;2023-04-09T12:13:00;99396.22;;;24.48;27.50
10658;BME280;5377;43.276;26.930;2023-04-09T12:15:31;99392.31;;;23.81;28.54
10658;BME280;5377;43.276;26.930;2023-04-09T12:17:58;99405.22;;;22.80;29.50
10658;BME280;5377;43.276;26.930;2023-04-09T12:20:30;99400.59;;;22.65;30.83
10658;BME280;5377;43.276;26.930;2023-04-09T12:22:58;99407.28;;;21.56;31.99
10658;BME280;5377;43.276;26.930;2023-04-09T12:25:25;99397.03;;;22.09;31.33
10658;BME280;5377;43.276;26.930;2023-04-09T12:27:53;99393.78;;;22.37;30.48
10658;BME280;5377;43.276;26.930;2023-04-09T12:30:20;99390.34;;;21.49;30.64
10658;BME280;5377;43.276;26.930;2023-04-09T12:32:49;99401.31;;;20.65;31.45
10658;BME280;5377;43.276;26.930;2023-04-09T12:35:15;99391.97;;;21.50;31.32
10658;BME280;5377;43.276;26.930;2023-04-09T12:37:43;99391.31;;;22.61;30.05
10658;BME280;5377;43.276;26.930;2023-04-09T12:40:10;99379.97;;;23.83;28.78
10658;BME280;5377;43.276;26.930;2023-04-09T12:42:38;99367.34;;;24.84;27.77
10658;BME280;5377;43.276;26.930;2023-04-09T12:45:06;99362.00;;;25.22;27.09
10658;BME280;5377;43.276;26.930;2023-04-09T12:47:33;99356.38;;;24.26;27.44
10658;BME280;5377;43.276;26.930;2023-04-09T12:50:02;99359.34;;;22.82;29.04
10658;BME280;5377;43.276;26.930;2023-04-09T12:52:29;99381.97;;;21.71;29.86
10658;BME280;5377;43.276;26.930;2023-04-09T12:54:56;99373.19;;;20.49;31.62
10658;BME280;5377;43.276;26.930;2023-04-09T12:57:23;99370.59;;;20.69;32.19
10658;BME280;5377;43.276;26.930;2023-04-09T12:59:49;99375.16;;;19.94;32.62
10658;BME280;5377;43.276;26.930;2023-04-09T13:02:16;99366.22;;;19.72;33.35
10658;BME280;5377;43.276;26.930;2023-04-09T13:04:43;99368.34;;;20.24;32.58